createdAt,value
2019-05-03T00:00:56.624Z,48.40
2019-05-03T00:02:03.953Z,48.70
2019-05-03T00:03:06.676Z,48.50
2019-05-03T00:04:09.461Z,48.40
2019-05-03T00:05:12.572Z,48.50
2019-05-03T00:06:15.380Z,48.50
2019-05-03T00:07:18.453Z,48.60
2019-05-03T00:08:21.711Z,48.50
2019-05-03T00:09:24.496Z,48.50
2019-05-03T00:10:27.247Z,48.50
2019-05-03T00:11:29.968Z,48.50
2019-05-03T00:12:32.807Z,48.60
2019-05-03T00:13:35.608Z,48.50
2019-05-03T00:14:38.339Z,48.60
2019-05-03T00:15:42.846Z,48.50
2019-05-03T00:16:45.549Z,48.60
2019-05-03T00:17:48.263Z,48.60
2019-05-03T00:18:52.618Z,48.60
2019-05-03T00:19:55.518Z,48.60
2019-05-03T00:20:58.259Z,48.70
2019-05-03T00:22:02.069Z,48.60
2019-05-03T00:23:04.999Z,48.60
2019-05-03T00:24:07.723Z,48.60
2019-05-03T00:25:12.726Z,48.60
2019-05-03T00:26:14.803Z,48.60
2019-05-03T00:27:17.908Z,48.60
2019-05-03T00:28:21.675Z,48.60
2019-05-03T00:29:24.570Z,48.50
2019-05-03T00:30:27.282Z,48.70
2019-05-03T00:31:31.780Z,48.60
2019-05-03T00:32:34.375Z,48.60
2019-05-03T00:33:37.462Z,48.70
2019-05-03T00:34:41.795Z,48.60
2019-05-03T00:35:44.727Z,48.60
2019-05-03T00:36:47.443Z,48.60
2019-05-03T00:37:50.167Z,48.60
2019-05-03T00:38:52.884Z,48.60
2019-05-03T00:39:55.607Z,48.60
2019-05-03T00:40:58.349Z,48.60
2019-05-03T00:42:02.750Z,48.70
2019-05-03T00:43:05.583Z,48.60
2019-05-03T00:44:08.299Z,48.80
2019-05-03T00:45:12.579Z,48.70
2019-05-03T00:46:15.462Z,48.70
2019-05-03T00:47:18.187Z,48.80
2019-05-03T00:48:21.922Z,48.70
2019-05-03T00:49:25.388Z,48.70
2019-05-03T00:50:28.104Z,48.70
2019-05-03T00:51:31.801Z,48.70
2019-05-03T00:52:34.687Z,50.10
2019-05-03T00:53:37.407Z,48.70
2019-05-03T00:54:42.218Z,48.90
2019-05-03T00:55:44.471Z,48.70
2019-05-03T00:56:47.222Z,48.80
2019-05-03T00:57:52.008Z,48.80
2019-05-03T00:58:54.283Z,48.80
2019-05-03T00:59:57.275Z,48.80
2019-05-03T01:01:02.651Z,48.90
2019-05-03T01:02:05.531Z,48.80
2019-05-03T01:03:08.251Z,48.80
2019-05-03T01:04:11.833Z,48.90
2019-05-03T01:05:14.787Z,48.90
2019-05-03T01:06:17.534Z,48.90
2019-05-03T01:07:22.110Z,48.90
2019-05-03T01:08:24.594Z,48.80
2019-05-03T01:09:27.314Z,48.90
2019-05-03T01:10:30.026Z,48.80
2019-05-03T01:11:32.779Z,47.70
2019-05-03T01:12:35.499Z,48.90
2019-05-03T01:13:38.223Z,48.90
2019-05-03T01:14:42.143Z,48.90
2019-05-03T01:15:44.960Z,48.90
2019-05-03T01:16:47.715Z,48.80
2019-05-03T01:17:52.448Z,48.80
2019-05-03T01:18:54.771Z,48.80
2019-05-03T01:19:57.489Z,49.70
2019-05-03T01:21:02.183Z,48.90
2019-05-03T01:22:04.568Z,48.90
2019-05-03T01:23:07.289Z,48.90
2019-05-03T01:24:10.003Z,49.90
2019-05-03T01:25:12.730Z,48.90
2019-05-03T01:26:15.443Z,48.80
2019-05-03T01:27:18.195Z,48.90
2019-05-03T01:28:21.621Z,48.90
2019-05-03T01:29:24.427Z,48.90
2019-05-03T01:30:27.142Z,48.90
2019-05-03T01:31:31.810Z,48.90
2019-05-03T01:32:34.223Z,49.00
2019-05-03T01:33:36.943Z,49.10
2019-05-03T01:34:41.630Z,49.00
2019-05-03T01:35:44.452Z,48.90
2019-05-03T01:36:47.168Z,49.10
2019-05-03T01:37:51.787Z,48.90
2019-05-03T01:38:54.273Z,49.10
2019-05-03T01:39:56.993Z,49.00
2019-05-03T01:41:01.579Z,49.00
2019-05-03T01:42:04.070Z,48.90
2019-05-03T01:43:06.808Z,49.10
2019-05-03T01:44:09.510Z,49.00
2019-05-03T01:45:12.227Z,49.00
2019-05-03T01:46:15.237Z,49.00
2019-05-03T01:47:17.988Z,49.00
2019-05-03T01:48:21.711Z,49.00
2019-05-03T01:49:24.430Z,49.00
2019-05-03T01:50:27.140Z,49.00
2019-05-03T01:51:29.859Z,49.10
2019-05-03T01:52:32.606Z,49.00
2019-05-03T01:53:35.315Z,49.20
2019-05-03T01:54:38.034Z,49.10
2019-05-03T01:55:44.430Z,49.10
2019-05-03T01:56:55.947Z,49.00
2019-05-03T01:57:49.451Z,49.00
2019-05-03T01:58:52.474Z,49.20
2019-05-03T01:59:55.282Z,49.10
2019-05-03T02:00:58.014Z,49.10
2019-05-03T02:02:02.276Z,50.30
2019-05-03T02:03:05.159Z,49.00
2019-05-03T02:04:07.886Z,49.10
2019-05-03T02:05:11.981Z,49.20
2019-05-03T02:06:14.716Z,49.10
2019-05-03T02:07:17.426Z,49.10
2019-05-03T02:08:21.901Z,49.20
2019-05-03T02:09:24.514Z,49.10
2019-05-03T02:10:27.231Z,49.30
2019-05-03T02:11:29.951Z,49.10
2019-05-03T02:12:32.663Z,49.20
2019-05-03T02:13:35.407Z,49.10
2019-05-03T02:14:38.129Z,49.20
2019-05-03T02:15:42.190Z,49.20
2019-05-03T02:16:45.067Z,49.10
2019-05-03T02:17:47.782Z,49.10
2019-05-03T02:18:51.840Z,49.10
2019-05-03T02:19:54.643Z,49.20
2019-05-03T02:20:57.365Z,49.10
2019-05-03T02:22:00.079Z,49.20
2019-05-03T02:23:02.930Z,49.10
2019-05-03T02:24:05.647Z,49.30
2019-05-03T02:25:08.371Z,49.10
2019-05-03T02:26:11.798Z,49.10
2019-05-03T02:27:14.606Z,49.10
2019-05-03T02:28:17.368Z,49.10
2019-05-03T02:29:21.830Z,49.20
2019-05-03T02:30:25.076Z,49.10
2019-05-03T02:31:27.924Z,49.10
2019-05-03T02:32:33.081Z,48.50
2019-05-03T02:33:35.007Z,49.20
2019-05-03T02:34:38.097Z,49.10
2019-05-03T02:35:43.018Z,49.20
2019-05-03T02:36:45.311Z,49.20
2019-05-03T02:37:48.032Z,49.10
2019-05-03T02:38:53.311Z,49.50
2019-05-03T02:39:55.600Z,49.10
2019-05-03T02:40:58.311Z,49.30
2019-05-03T02:42:07.920Z,49.30
2019-05-03T02:43:05.601Z,49.10
2019-05-03T02:44:08.508Z,49.30
2019-05-03T02:45:11.235Z,49.20
2019-05-03T02:46:16.480Z,48.10
2019-05-03T02:47:18.287Z,49.20
2019-05-03T02:48:21.039Z,49.20
2019-05-03T02:49:25.766Z,49.20
2019-05-03T02:50:28.101Z,49.40
2019-05-03T02:51:30.835Z,49.20
2019-05-03T02:52:36.437Z,49.20
2019-05-03T02:53:37.896Z,49.30
2019-05-03T02:54:40.627Z,49.30
2019-05-03T02:55:45.394Z,49.20
2019-05-03T02:56:47.680Z,49.30
2019-05-03T02:57:50.385Z,49.40
2019-05-03T02:58:55.560Z,49.30
2019-05-03T02:59:57.604Z,49.50
2019-05-03T03:01:01.563Z,49.30
2019-05-03T03:02:06.393Z,49.30
2019-05-03T03:03:08.611Z,49.30
2019-05-03T03:04:11.363Z,49.30
2019-05-03T03:05:16.465Z,49.30
2019-05-03T03:06:18.688Z,49.30
2019-05-03T03:07:21.411Z,49.30
2019-05-03T03:08:26.527Z,49.20
2019-05-03T03:09:29.401Z,49.30
2019-05-03T03:10:32.120Z,49.30
2019-05-03T03:11:37.102Z,49.20
2019-05-03T03:12:40.068Z,49.30
2019-05-03T03:13:45.599Z,49.40
2019-05-03T03:14:47.280Z,49.30
2019-05-03T03:15:50.760Z,49.50
2019-05-03T03:16:56.021Z,49.40
2019-05-03T03:17:58.876Z,49.30
2019-05-03T03:19:03.068Z,49.50
2019-05-03T03:20:06.434Z,49.30
2019-05-03T03:21:09.986Z,49.30
2019-05-03T03:22:12.706Z,49.40
2019-05-03T03:23:17.967Z,49.40
2019-05-03T03:24:19.779Z,49.40
2019-05-03T03:25:25.566Z,49.40
2019-05-03T03:26:37.623Z,49.40
2019-05-03T03:27:32.812Z,49.30
2019-05-03T03:28:36.002Z,48.80
2019-05-03T03:29:38.872Z,49.40
2019-05-03T03:31:00.000Z,49.40
2019-05-03T03:32:10.048Z,49.40
2019-05-03T03:33:17.581Z,49.40
2019-05-03T03:34:27.445Z,49.40
2019-05-03T03:35:30.290Z,50.70
2019-05-03T03:36:57.979Z,49.40
2019-05-03T03:37:41.213Z,49.40
2019-05-03T03:38:45.902Z,49.50
2019-05-03T03:39:48.292Z,49.40
2019-05-03T03:40:51.015Z,49.60
2019-05-03T03:41:55.744Z,49.40
2019-05-03T03:42:58.798Z,49.50
2019-05-03T03:44:01.942Z,49.40
2019-05-03T03:45:06.278Z,49.40
2019-05-03T03:46:09.011Z,49.40
2019-05-03T03:47:12.210Z,49.40
2019-05-03T03:48:15.959Z,49.40
2019-05-03T03:49:19.050Z,49.40
2019-05-03T03:50:25.712Z,49.50
2019-05-03T03:51:27.284Z,49.50
2019-05-03T03:52:31.380Z,49.50
2019-05-03T03:53:35.652Z,49.60
2019-05-03T03:54:38.553Z,49.40
2019-05-03T03:55:41.278Z,49.50
2019-05-03T03:56:56.061Z,49.50
2019-05-03T03:57:48.355Z,49.50
2019-05-03T03:58:51.070Z,49.60
2019-05-03T03:59:56.239Z,49.60
2019-05-03T04:00:59.231Z,49.50
2019-05-03T04:02:01.951Z,49.50
2019-05-03T04:03:05.890Z,49.50
2019-05-03T04:04:08.795Z,49.40
2019-05-03T04:05:11.542Z,50.90
2019-05-03T04:06:15.376Z,49.50
2019-05-03T04:07:18.338Z,49.70
2019-05-03T04:08:21.455Z,49.70
2019-05-03T04:09:25.569Z,49.50
2019-05-03T04:10:28.662Z,49.50
2019-05-03T04:11:31.367Z,49.50
2019-05-03T04:12:35.175Z,49.60
2019-05-03T04:13:38.099Z,49.60
2019-05-03T04:14:40.816Z,49.60
2019-05-03T04:15:45.335Z,49.70
2019-05-03T04:16:48.891Z,49.60
2019-05-03T04:17:52.019Z,49.70
2019-05-03T04:18:55.127Z,49.60
2019-05-03T04:19:58.007Z,49.60
2019-05-03T04:21:00.760Z,49.50
2019-05-03T04:22:05.924Z,49.60
2019-05-03T04:23:07.823Z,49.60
2019-05-03T04:24:10.539Z,49.60
2019-05-03T04:25:15.462Z,49.60
2019-05-03T04:26:17.614Z,49.70
2019-05-03T04:27:24.439Z,49.60
2019-05-03T04:28:25.592Z,49.70
2019-05-03T04:29:28.555Z,50.50
2019-05-03T04:30:31.322Z,49.60
2019-05-03T04:31:36.536Z,49.60
2019-05-03T04:32:38.379Z,49.60
2019-05-03T04:33:41.091Z,50.30
2019-05-03T04:34:45.309Z,49.60
2019-05-03T04:35:48.364Z,49.60
2019-05-03T04:36:51.075Z,49.80
2019-05-03T04:37:55.878Z,49.60
2019-05-03T04:38:58.129Z,49.60
2019-05-03T04:40:00.850Z,49.60
2019-05-03T04:41:05.938Z,49.60
2019-05-03T04:42:08.206Z,49.70
2019-05-03T04:43:10.919Z,48.50
2019-05-03T04:44:15.488Z,49.80
2019-05-03T04:45:17.971Z,49.60
2019-05-03T04:46:20.729Z,49.70
2019-05-03T04:47:26.051Z,49.60
2019-05-03T04:48:27.775Z,49.70
2019-05-03T04:49:30.500Z,49.60
2019-05-03T04:50:36.636Z,49.60
2019-05-03T04:51:38.339Z,49.60
2019-05-03T04:52:41.127Z,49.70
2019-05-03T04:53:45.438Z,49.60
2019-05-03T04:54:48.382Z,49.70
2019-05-03T04:55:51.100Z,49.70
2019-05-03T04:56:56.106Z,49.70
2019-05-03T04:57:58.681Z,49.70
2019-05-03T04:59:01.392Z,49.70
2019-05-03T05:00:08.645Z,49.80
2019-05-03T05:01:09.976Z,49.70
2019-05-03T05:02:15.668Z,49.70
2019-05-03T05:03:17.063Z,49.80
2019-05-03T05:04:19.780Z,49.60
2019-05-03T05:05:22.503Z,49.70
2019-05-03T05:06:25.804Z,49.70
2019-05-03T05:07:28.662Z,49.70
2019-05-03T05:08:31.394Z,49.70
2019-05-03T05:09:34.906Z,49.60
2019-05-03T05:10:37.926Z,49.60
2019-05-03T05:11:40.680Z,49.80
2019-05-03T05:12:45.557Z,49.80
2019-05-03T05:13:47.907Z,49.70
2019-05-03T05:14:50.628Z,49.70
2019-05-03T05:15:55.104Z,49.70
2019-05-03T05:16:57.707Z,49.70
2019-05-03T05:18:00.444Z,49.60
2019-05-03T05:19:05.347Z,49.70
2019-05-03T05:20:07.788Z,49.70
2019-05-03T05:21:10.503Z,49.80
2019-05-03T05:22:15.362Z,49.80
2019-05-03T05:23:17.710Z,49.80
2019-05-03T05:24:20.435Z,49.70
2019-05-03T05:25:25.102Z,49.70
2019-05-03T05:26:27.938Z,49.70
2019-05-03T05:27:30.686Z,49.70
2019-05-03T05:28:35.360Z,49.80
2019-05-03T05:29:37.746Z,49.70
2019-05-03T05:30:40.471Z,49.90
2019-05-03T05:31:44.636Z,49.70
2019-05-03T05:32:47.539Z,49.90
2019-05-03T05:33:50.259Z,49.70
2019-05-03T05:34:54.836Z,51.00
2019-05-03T05:35:57.316Z,49.70
2019-05-03T05:37:00.059Z,49.60
2019-05-03T05:38:04.339Z,49.50
2019-05-03T05:39:07.787Z,46.90
2019-05-03T05:40:10.494Z,44.80
2019-05-03T05:41:13.218Z,44.10
2019-05-03T05:42:15.971Z,43.80
2019-05-03T05:43:18.692Z,43.70
2019-05-03T05:44:21.412Z,44.00
2019-05-03T05:45:24.643Z,44.20
2019-05-03T05:46:27.455Z,45.10
2019-05-03T05:47:30.203Z,45.70
2019-05-03T05:48:34.799Z,46.10
2019-05-03T05:49:37.275Z,46.40
2019-05-03T05:50:39.990Z,46.80
2019-05-03T05:51:44.462Z,46.80
2019-05-03T05:52:47.219Z,46.80
2019-05-03T05:53:49.938Z,46.80
2019-05-03T05:54:52.827Z,46.90
2019-05-03T05:55:55.847Z,47.00
2019-05-03T05:56:58.563Z,47.30
2019-05-03T05:58:05.263Z,47.20
2019-05-03T05:59:05.655Z,47.50
2019-05-03T06:00:08.383Z,47.40
2019-05-03T06:01:11.099Z,47.60
2019-05-03T06:02:15.039Z,47.50
2019-05-03T06:03:17.970Z,47.60
2019-05-03T06:04:20.690Z,47.50
2019-05-03T06:05:25.140Z,47.80
2019-05-03T06:06:27.751Z,47.60
2019-05-03T06:07:31.170Z,47.70
2019-05-03T06:08:35.379Z,47.70
2019-05-03T06:09:38.207Z,47.80
2019-05-03T06:10:40.933Z,48.00
2019-05-03T06:11:45.013Z,48.00
2019-05-03T06:12:47.929Z,48.00
2019-05-03T06:13:50.647Z,48.10
2019-05-03T06:14:54.457Z,48.20
2019-05-03T06:15:57.243Z,48.10
2019-05-03T06:16:59.971Z,48.20
2019-05-03T06:18:02.731Z,48.10
2019-05-03T06:19:05.447Z,48.20
2019-05-03T06:20:08.435Z,48.20
2019-05-03T06:21:11.155Z,48.20
2019-05-03T06:22:15.373Z,48.40
2019-05-03T06:23:18.904Z,48.30
2019-05-03T06:24:21.623Z,48.10
2019-05-03T06:25:26.598Z,48.70
2019-05-03T06:26:28.695Z,49.00
2019-05-03T06:27:31.411Z,49.10
2019-05-03T06:28:35.243Z,49.40
2019-05-03T06:29:38.754Z,42.80
2019-05-03T06:30:41.454Z,42.00
2019-05-03T06:31:44.627Z,45.70
2019-05-03T06:32:47.392Z,43.70
2019-05-03T06:33:52.432Z,44.70
2019-05-03T06:34:54.640Z,46.00
2019-05-03T06:35:57.418Z,48.30
2019-05-03T06:37:00.407Z,48.20
2019-05-03T06:38:04.821Z,47.50
2019-05-03T06:39:08.420Z,48.80
2019-05-03T06:40:11.463Z,48.40
2019-05-03T06:41:15.022Z,50.70
2019-05-03T06:42:19.389Z,50.10
2019-05-03T06:43:24.395Z,52.00
2019-05-03T06:44:28.735Z,52.20
2019-05-03T06:45:32.351Z,52.00
2019-05-03T06:46:35.586Z,52.10
2019-05-03T06:47:40.283Z,53.00
2019-05-03T06:48:44.426Z,52.40
2019-05-03T06:49:48.668Z,52.40
2019-05-03T06:50:51.704Z,52.40
2019-05-03T06:51:54.770Z,52.10
2019-05-03T06:52:59.850Z,52.20
2019-05-03T06:54:04.947Z,54.30
2019-05-03T06:55:10.510Z,54.40
2019-05-03T06:56:12.140Z,53.40
2019-05-03T06:57:15.135Z,55.10
2019-05-03T06:58:30.455Z,53.60
2019-05-03T06:59:24.794Z,53.50
2019-05-03T07:00:27.383Z,53.80
2019-05-03T07:01:30.379Z,52.70
2019-05-03T07:02:35.395Z,52.10
2019-05-03T07:03:37.987Z,53.20
2019-05-03T07:04:41.023Z,52.90
2019-05-03T07:05:44.452Z,51.70
2019-05-03T07:06:48.686Z,52.30
2019-05-03T07:07:51.602Z,53.00
2019-05-03T07:08:54.980Z,53.70
2019-05-03T07:09:58.111Z,53.10
2019-05-03T07:11:01.160Z,52.70
2019-05-03T07:12:04.537Z,53.90
2019-05-03T07:13:09.039Z,53.90
2019-05-03T07:14:12.111Z,55.00
2019-05-03T07:15:15.111Z,53.00
2019-05-03T07:16:18.095Z,53.40
2019-05-03T07:17:21.091Z,54.50
2019-05-03T07:18:24.745Z,54.00
2019-05-03T07:19:27.935Z,53.60
2019-05-03T07:20:30.911Z,53.60
2019-05-03T07:21:35.411Z,53.70
2019-05-03T07:22:38.503Z,53.20
2019-05-03T07:23:41.534Z,54.80
2019-05-03T07:24:45.499Z,53.70
2019-05-03T07:25:48.883Z,54.10
2019-05-03T07:26:51.878Z,53.70
2019-05-03T07:27:55.639Z,54.50
2019-05-03T07:28:58.763Z,54.00
2019-05-03T07:30:02.159Z,53.70
2019-05-03T07:31:05.225Z,54.10
2019-05-03T07:32:08.216Z,53.30
2019-05-03T07:33:11.207Z,54.50
2019-05-03T07:34:15.558Z,54.10
2019-05-03T07:35:18.725Z,54.60
2019-05-03T07:36:25.080Z,55.00
2019-05-03T07:37:26.627Z,55.20
2019-05-03T07:38:29.619Z,55.10
2019-05-03T07:39:34.698Z,55.10
2019-05-03T07:40:37.246Z,56.40
2019-05-03T07:41:40.230Z,55.50
2019-05-03T07:42:44.866Z,56.30
2019-05-03T07:43:48.014Z,56.30
2019-05-03T07:44:51.031Z,56.90
2019-05-03T07:45:55.264Z,57.50
2019-05-03T07:46:58.430Z,58.20
2019-05-03T07:48:01.429Z,57.60
2019-05-03T07:49:05.039Z,57.40
2019-05-03T07:50:08.355Z,58.00
2019-05-03T07:51:11.346Z,58.20
2019-05-03T07:52:14.824Z,58.30
2019-05-03T07:53:18.022Z,58.40
2019-05-03T07:54:21.020Z,59.50
2019-05-03T07:55:24.975Z,59.10
2019-05-03T07:56:28.035Z,60.50
2019-05-03T07:57:31.025Z,60.00
2019-05-03T07:58:35.157Z,60.00
2019-05-03T07:59:38.277Z,57.90
2019-05-03T08:00:41.307Z,57.30
2019-05-03T08:01:45.582Z,57.90
2019-05-03T08:02:48.784Z,60.40
2019-05-03T08:03:51.763Z,59.00
2019-05-03T08:04:54.929Z,60.20
2019-05-03T08:05:58.086Z,59.90
2019-05-03T08:07:01.076Z,59.20
2019-05-03T08:08:04.809Z,60.60
2019-05-03T08:09:08.034Z,60.10
2019-05-03T08:10:11.019Z,60.30
2019-05-03T08:11:14.518Z,59.70
2019-05-03T08:12:17.638Z,58.20
2019-05-03T08:13:20.790Z,57.50
2019-05-03T08:14:25.219Z,57.20
2019-05-03T08:15:28.406Z,56.20
2019-05-03T08:16:31.399Z,55.80
2019-05-03T08:17:34.717Z,56.80
2019-05-03T08:18:37.679Z,56.20
2019-05-03T08:19:40.674Z,55.40
2019-05-03T08:20:45.115Z,55.70
2019-05-03T08:21:48.411Z,55.50
2019-05-03T08:22:51.396Z,55.40
2019-05-03T08:23:55.698Z,53.70
2019-05-03T08:24:58.912Z,53.70
2019-05-03T08:26:01.677Z,54.40
2019-05-03T08:27:05.173Z,54.50
2019-05-03T08:28:08.254Z,54.20
2019-05-03T08:29:16.136Z,54.00
2019-05-03T08:30:15.324Z,54.30
2019-05-03T08:31:18.338Z,53.90
2019-05-03T08:32:21.327Z,54.10
2019-05-03T08:33:24.977Z,53.10
2019-05-03T08:34:28.127Z,52.80
2019-05-03T08:35:30.842Z,53.60
2019-05-03T08:36:34.938Z,53.80
2019-05-03T08:37:38.059Z,53.60
2019-05-03T08:38:41.046Z,53.10
2019-05-03T08:39:44.716Z,53.10
2019-05-03T08:40:47.991Z,53.90
2019-05-03T08:41:53.023Z,53.10
2019-05-03T08:42:56.411Z,53.80
2019-05-03T08:43:59.407Z,52.40
2019-05-03T08:45:04.542Z,50.20
2019-05-03T08:46:07.239Z,53.10
2019-05-03T08:47:10.228Z,53.00
2019-05-03T08:48:15.100Z,51.70
2019-05-03T08:49:17.963Z,54.40
2019-05-03T08:50:21.677Z,51.70
2019-05-03T08:51:25.098Z,51.00
2019-05-03T08:52:28.272Z,51.60
2019-05-03T08:53:31.403Z,52.50
2019-05-03T08:54:34.845Z,52.10
2019-05-03T08:55:37.979Z,53.40
2019-05-03T08:56:40.995Z,54.30
2019-05-03T08:57:44.752Z,54.90
2019-05-03T08:58:48.072Z,51.70
2019-05-03T08:59:51.069Z,53.00
2019-05-03T09:00:54.695Z,52.50
2019-05-03T09:01:57.951Z,51.50
2019-05-03T09:03:00.935Z,50.30
2019-05-03T09:04:04.982Z,52.00
2019-05-03T09:05:08.123Z,52.60
2019-05-03T09:06:11.113Z,51.70
2019-05-03T09:07:14.804Z,52.10
2019-05-03T09:08:18.026Z,52.30
2019-05-03T09:09:21.016Z,53.10
2019-05-03T09:10:24.960Z,53.20
2019-05-03T09:11:34.071Z,53.00
2019-05-03T09:12:34.283Z,53.50
2019-05-03T09:13:37.344Z,53.30
2019-05-03T09:14:45.553Z,57.00
2019-05-03T09:15:45.995Z,57.50
2019-05-03T09:16:49.883Z,57.60
2019-05-03T09:17:52.608Z,57.30
2019-05-03T09:18:55.600Z,56.80
2019-05-03T09:19:58.359Z,56.30
2019-05-03T09:21:01.121Z,55.80
2019-05-03T09:22:05.984Z,55.30
2019-05-03T09:23:08.222Z,55.00
2019-05-03T09:24:11.001Z,54.50
2019-05-03T09:25:15.458Z,54.10
2019-05-03T09:26:18.307Z,53.80
2019-05-03T09:27:21.059Z,53.60
2019-05-03T09:28:26.470Z,53.30
2019-05-03T09:29:40.223Z,53.00
2019-05-03T09:30:32.766Z,52.70
2019-05-03T09:31:35.519Z,52.40
2019-05-03T09:32:38.263Z,52.30
2019-05-03T09:33:40.979Z,52.00
2019-05-03T09:34:44.474Z,51.80
2019-05-03T09:35:47.321Z,51.70
2019-05-03T09:36:50.356Z,51.40
2019-05-03T09:37:53.115Z,51.20
2019-05-03T09:38:55.830Z,51.10
2019-05-03T09:39:58.547Z,50.90
2019-05-03T09:41:01.268Z,50.80
2019-05-03T09:42:04.676Z,50.60
2019-05-03T09:43:07.634Z,50.60
2019-05-03T09:44:10.355Z,50.50
2019-05-03T09:45:15.240Z,50.20
2019-05-03T09:46:17.415Z,50.10
2019-05-03T09:47:20.143Z,50.00
2019-05-03T09:48:25.163Z,50.00
2019-05-03T09:49:27.548Z,49.80
2019-05-03T09:50:30.254Z,49.60
2019-05-03T09:51:34.850Z,49.50
2019-05-03T09:52:37.307Z,49.50
2019-05-03T09:53:40.278Z,49.30
2019-05-03T09:54:45.172Z,49.10
2019-05-03T09:55:47.340Z,49.20
2019-05-03T09:56:56.086Z,49.10
2019-05-03T09:57:55.540Z,49.20
2019-05-03T09:58:58.487Z,49.40
2019-05-03T10:00:01.212Z,49.30
2019-05-03T10:01:06.248Z,49.30
2019-05-03T10:02:08.271Z,49.40
2019-05-03T10:03:11.043Z,49.30
2019-05-03T10:04:14.119Z,49.30
2019-05-03T10:05:16.848Z,49.30
2019-05-03T10:06:19.679Z,49.10
2019-05-03T10:07:22.395Z,48.90
2019-05-03T10:08:25.558Z,48.20
2019-05-03T10:09:28.368Z,48.60
2019-05-03T10:10:31.088Z,49.00
2019-05-03T10:11:35.139Z,48.80
2019-05-03T10:12:37.937Z,49.00
2019-05-03T10:13:42.011Z,49.00
2019-05-03T10:14:46.467Z,49.70
2019-05-03T10:15:50.158Z,50.50
2019-05-03T10:16:54.745Z,49.20
2019-05-03T10:17:57.279Z,49.40
2019-05-03T10:19:00.036Z,49.40
2019-05-03T10:20:04.799Z,49.30
2019-05-03T10:21:07.511Z,49.30
2019-05-03T10:22:10.294Z,49.10
2019-05-03T10:23:14.879Z,49.30
2019-05-03T10:24:17.391Z,49.10
2019-05-03T10:25:20.141Z,49.20
2019-05-03T10:26:24.581Z,49.10
2019-05-03T10:27:27.379Z,49.30
2019-05-03T10:28:30.099Z,49.20
2019-05-03T10:29:32.852Z,49.30
2019-05-03T10:30:35.571Z,49.20
2019-05-03T10:31:38.294Z,49.70
2019-05-03T10:32:41.999Z,49.20
2019-05-03T10:33:45.114Z,49.20
2019-05-03T10:34:48.269Z,49.30
2019-05-03T10:35:51.085Z,49.10
2019-05-03T10:36:54.878Z,49.10
2019-05-03T10:37:57.881Z,49.10
2019-05-03T10:39:00.555Z,49.60
2019-05-03T10:40:07.728Z,49.20
2019-05-03T10:41:08.170Z,49.10
2019-05-03T10:42:10.891Z,49.20
2019-05-03T10:43:13.611Z,49.20
2019-05-03T10:44:16.367Z,49.20
2019-05-03T10:45:19.661Z,49.20
2019-05-03T10:46:22.367Z,50.40
2019-05-03T10:47:25.516Z,49.30
2019-05-03T10:48:29.944Z,49.00
2019-05-03T10:50:59.600Z,49.00
2019-05-03T10:52:05.643Z,49.10
2019-05-03T10:53:15.439Z,49.20
2019-05-03T10:54:19.571Z,49.30
2019-05-03T10:55:25.000Z,49.20
2019-05-03T10:56:30.605Z,49.20
2019-05-03T10:58:56.636Z,49.30
2019-05-03T11:00:06.104Z,49.10
2019-05-03T11:01:17.458Z,49.30
2019-05-03T11:02:25.786Z,49.20
2019-05-03T11:03:34.375Z,40.70
2019-05-03T11:04:46.322Z,41.00
2019-05-03T11:06:06.585Z,40.70
2019-05-03T11:08:32.612Z,41.70
2019-05-03T11:09:49.549Z,42.10
2019-05-03T11:10:47.210Z,44.10
2019-05-03T11:11:49.967Z,41.30
2019-05-03T11:12:57.584Z,40.50
2019-05-03T11:14:01.911Z,41.00
2019-05-03T11:15:06.164Z,40.60
2019-05-03T11:16:08.905Z,41.30
2019-05-03T11:17:15.551Z,41.30
2019-05-03T11:18:22.085Z,41.10
2019-05-03T11:19:25.435Z,41.70
2019-05-03T11:20:37.958Z,41.00
2019-05-03T11:23:05.906Z,39.80
2019-05-03T11:25:37.511Z,39.30
2019-05-03T11:29:48.223Z,39.80
2019-05-03T11:30:59.103Z,40.00
2019-05-03T11:33:35.233Z,40.70
2019-05-03T11:38:55.735Z,39.80
2019-05-03T11:40:12.183Z,38.20
2019-05-03T11:41:23.272Z,38.20
2019-05-03T11:43:44.475Z,40.30
2019-05-03T11:44:55.064Z,39.50
2019-05-03T11:47:27.628Z,39.00
2019-05-03T11:48:31.822Z,40.80
2019-05-03T11:49:36.135Z,40.30
2019-05-03T11:50:45.346Z,40.00
2019-05-03T11:56:06.060Z,40.90
2019-05-03T11:57:26.096Z,40.00
2019-05-03T11:58:27.595Z,40.20
2019-05-03T12:01:11.878Z,41.00
2019-05-03T12:02:05.041Z,41.00
2019-05-03T12:06:00.723Z,42.80
2019-05-03T12:07:05.942Z,41.40
2019-05-03T12:08:09.431Z,41.60
2019-05-03T12:09:15.484Z,41.90
2019-05-03T12:10:36.716Z,41.30
2019-05-03T12:11:35.199Z,41.00
2019-05-03T12:12:37.911Z,42.30
2019-05-03T12:13:40.635Z,40.50
2019-05-03T12:16:16.341Z,41.00
2019-05-03T12:17:18.463Z,41.40
2019-05-03T12:18:25.868Z,40.90
2019-05-03T12:20:52.508Z,42.10
2019-05-03T12:23:27.424Z,43.10
2019-05-03T12:24:32.925Z,41.70
2019-05-03T12:25:46.484Z,41.00
2019-05-03T12:26:51.527Z,42.10
2019-05-03T12:28:08.997Z,42.00
2019-05-03T12:30:35.317Z,41.00
2019-05-03T12:37:05.300Z,42.00
2019-05-03T12:38:25.693Z,42.80
2019-05-03T12:39:30.577Z,43.10
2019-05-03T12:41:59.675Z,42.00
2019-05-03T12:43:06.501Z,42.50
2019-05-03T12:44:11.625Z,42.10
2019-05-03T12:45:16.671Z,41.70
2019-05-03T12:46:26.475Z,41.60
2019-05-03T12:48:51.363Z,40.60
2019-05-03T12:49:57.039Z,41.60
2019-05-03T12:52:30.675Z,40.60
2019-05-03T12:56:23.898Z,43.00
2019-05-03T12:58:45.662Z,41.30
2019-05-03T12:59:55.655Z,40.90
2019-05-03T13:01:00.100Z,40.90
2019-05-03T13:02:04.880Z,42.60
2019-05-03T13:04:34.820Z,42.50
2019-05-03T13:05:42.502Z,42.30
2019-05-03T13:06:47.850Z,43.50
2019-05-03T13:07:55.032Z,42.70
2019-05-03T13:08:57.747Z,40.70
2019-05-03T13:10:21.734Z,41.70
2019-05-03T13:14:11.070Z,41.50
2019-05-03T13:15:15.600Z,41.30
2019-05-03T13:16:25.312Z,42.30
2019-05-03T13:20:25.073Z,44.40
2019-05-03T13:21:27.928Z,40.80
2019-05-03T13:23:54.903Z,42.80
2019-05-03T13:26:21.567Z,40.80
2019-05-03T13:27:25.311Z,41.10
2019-05-03T13:28:30.287Z,41.50
2019-05-03T13:31:00.590Z,39.60
2019-05-03T13:32:05.381Z,46.90
2019-05-03T13:33:07.750Z,47.00
2019-05-03T13:34:10.466Z,46.90
2019-05-03T13:35:15.008Z,46.80
2019-05-03T13:36:17.535Z,48.10
2019-05-03T13:37:20.294Z,46.80
2019-05-03T13:38:25.067Z,47.30
2019-05-03T13:39:27.832Z,46.80
2019-05-03T13:40:30.550Z,47.10
2019-05-03T13:41:34.958Z,46.60
2019-05-03T13:42:37.839Z,46.70
2019-05-03T13:43:40.556Z,46.80
2019-05-03T13:44:44.962Z,46.70
2019-05-03T13:45:47.862Z,46.70
2019-05-03T13:46:50.584Z,46.70
2019-05-03T13:47:55.030Z,46.60
2019-05-03T13:48:57.698Z,46.80
2019-05-03T13:50:00.414Z,46.80
2019-05-03T13:51:05.114Z,46.70
2019-05-03T13:52:07.458Z,46.70
2019-05-03T13:53:10.779Z,46.80
2019-05-03T13:54:14.941Z,46.80
2019-05-03T13:55:17.811Z,46.80
2019-05-03T13:56:20.534Z,47.00
2019-05-03T13:57:24.620Z,46.80
2019-05-03T13:58:27.406Z,46.80
2019-05-03T13:59:30.131Z,46.90
2019-05-03T14:00:34.591Z,47.10
2019-05-03T14:01:37.422Z,47.10
2019-05-03T14:02:40.167Z,47.10
2019-05-03T14:03:45.073Z,47.00
2019-05-03T14:04:52.472Z,47.20
2019-05-03T14:05:51.690Z,47.10
2019-05-03T14:06:55.261Z,47.10
2019-05-03T14:07:58.079Z,47.10
2019-05-03T14:09:00.787Z,47.30
2019-05-03T14:10:08.164Z,47.20
2019-05-03T14:11:10.879Z,47.20
2019-05-03T14:12:15.307Z,47.30
2019-05-03T14:13:17.979Z,47.30
2019-05-03T14:14:20.687Z,48.10
2019-05-03T14:15:25.428Z,47.30
2019-05-03T14:16:27.731Z,47.40
2019-05-03T14:17:30.446Z,47.40
2019-05-03T14:18:35.152Z,48.70
2019-05-03T14:19:37.894Z,47.50
2019-05-03T14:20:40.791Z,47.50
2019-05-03T14:21:44.077Z,47.60
2019-05-03T14:22:46.791Z,47.70
2019-05-03T14:23:49.535Z,47.50
2019-05-03T14:24:52.626Z,47.60
2019-05-03T14:25:55.388Z,47.60
2019-05-03T14:26:58.103Z,47.70
2019-05-03T14:28:00.877Z,47.70
2019-05-03T14:29:05.570Z,47.60
2019-05-03T14:30:08.063Z,47.60
2019-05-03T14:31:10.891Z,47.70
2019-05-03T14:32:25.459Z,47.70
2019-05-03T14:33:17.955Z,47.70
2019-05-03T14:34:21.050Z,47.70
2019-05-03T14:35:25.061Z,47.70
2019-05-03T14:36:27.900Z,47.70
2019-05-03T14:37:30.900Z,47.70
2019-05-03T14:38:33.744Z,47.80
2019-05-03T14:39:36.855Z,47.80